sensor_id;sensor_type;location;lat;lon;timestamp;P1;durP1;ratioP1;P2;durP2;ratioP2
54328;SDS011;40710;51.120;13.136;2023-05-19T00:01:44;5.58;;;5.54;;
54328;SDS011;40710;51.120;13.136;2023-05-19T00:04:11;4.83;;;4.83;;
54328;SDS011;40710;51.120;13.136;2023-05-19T00:06:37;4.65;;;4.64;;
54328;SDS011;40710;51.120;13.136;2023-05-19T00:09:06;4.57;;;4.56;;
54328;SDS011;40710;51.120;13.136;2023-05-19T00:11:32;4.45;;;4.45;;
54328;SDS011;40710;51.120;13.136;2023-05-19T00:14:02;4.79;;;4.79;;
54328;SDS011;40710;51.120;13.136;2023-05-19T00:16:29;4.67;;;4.67;;
54328;SDS011;40710;51.120;13.136;2023-05-19T00:18:55;4.63;;;4.63;;
54328;SDS011;40710;51.120;13.136;2023-05-19T00:21:23;4.56;;;4.56;;
54328;SDS011;40710;51.120;13.136;2023-05-19T00:23:47;4.56;;;4.56;;
54328;SDS011;40710;51.120;13.136;2023-05-19T00:26:12;4.89;;;4.89;;
54328;SDS011;40710;51.120;13.136;2023-05-19T00:28:37;4.80;;;4.80;;
54328;SDS011;40710;51.120;13.136;2023-05-19T00:31:02;4.66;;;4.66;;
54328;SDS011;40710;51.120;13.136;2023-05-19T00:33:28;4.80;;;4.80;;
54328;SDS011;40710;51.120;13.136;2023-05-19T00:35:53;4.66;;;4.66;;
54328;SDS011;40710;51.120;13.136;2023-05-19T00:38:18;4.68;;;4.68;;
54328;SDS011;40710;51.120;13.136;2023-05-19T00:40:43;4.65;;;4.65;;
54328;SDS011;40710;51.120;13.136;2023-05-19T00:43:08;4.63;;;4.63;;
54328;SDS011;40710;51.120;13.136;2023-05-19T00:45:32;4.65;;;4.64;;
54328;SDS011;40710;51.120;13.136;2023-05-19T00:47:57;4.48;;;4.48;;
54328;SDS011;40710;51.120;13.136;2023-05-19T00:50:22;4.89;;;4.89;;
54328;SDS011;40710;51.120;13.136;2023-05-19T00:52:51;4.65;;;4.64;;
54328;SDS011;40710;51.120;13.136;2023-05-19T00:55:16;4.96;;;4.96;;
54328;SDS011;40710;51.120;13.136;2023-05-19T00:57:41;4.69;;;4.69;;
54328;SDS011;40710;51.120;13.136;2023-05-19T01:00:06;4.83;;;4.83;;
54328;SDS011;40710;51.120;13.136;2023-05-19T01:02:31;4.67;;;4.67;;
54328;SDS011;40710;51.120;13.136;2023-05-19T01:04:56;4.68;;;4.68;;
54328;SDS011;40710;51.120;13.136;2023-05-19T01:07:20;4.60;;;4.60;;
54328;SDS011;40710;51.120;13.136;2023-05-19T01:09:46;4.62;;;4.61;;
54328;SDS011;40710;51.120;13.136;2023-05-19T01:12:11;4.72;;;4.71;;
54328;SDS011;40710;51.120;13.136;2023-05-19T01:14:35;4.67;;;4.66;;
54328;SDS011;40710;51.120;13.136;2023-05-19T01:17:02;4.18;;;4.17;;
54328;SDS011;40710;51.120;13.136;2023-05-19T01:19:49;4.43;;;4.43;;
54328;SDS011;40710;51.120;13.136;2023-05-19T01:22:37;4.66;;;4.66;;
54328;SDS011;40710;51.120;13.136;2023-05-19T01:28:09;4.55;;;4.55;;
54328;SDS011;40710;51.120;13.136;2023-05-19T01:30:52;5.12;;;5.12;;
54328;SDS011;40710;51.120;13.136;2023-05-19T01:33:19;4.70;;;4.70;;
54328;SDS011;40710;51.120;13.136;2023-05-19T01:35:46;4.72;;;4.72;;
54328;SDS011;40710;51.120;13.136;2023-05-19T01:38:12;4.71;;;4.71;;
54328;SDS011;40710;51.120;13.136;2023-05-19T01:40:40;4.88;;;4.88;;
54328;SDS011;40710;51.120;13.136;2023-05-19T01:43:08;5.28;;;5.28;;
54328;SDS011;40710;51.120;13.136;2023-05-19T01:45:35;4.79;;;4.79;;
54328;SDS011;40710;51.120;13.136;2023-05-19T01:48:01;4.97;;;4.97;;
54328;SDS011;40710;51.120;13.136;2023-05-19T01:50:27;5.83;;;5.83;;
54328;SDS011;40710;51.120;13.136;2023-05-19T01:52:52;5.73;;;5.73;;
54328;SDS011;40710;51.120;13.136;2023-05-19T01:55:17;4.92;;;4.92;;
54328;SDS011;40710;51.120;13.136;2023-05-19T01:57:54;5.28;;;5.28;;
54328;SDS011;40710;51.120;13.136;2023-05-19T02:00:28;4.66;;;4.66;;
54328;SDS011;40710;51.120;13.136;2023-05-19T02:03:18;4.70;;;4.70;;
54328;SDS011;40710;51.120;13.136;2023-05-19T02:08:42;4.74;;;4.74;;
54328;SDS011;40710;51.120;13.136;2023-05-19T02:11:21;5.04;;;5.04;;
54328;SDS011;40710;51.120;13.136;2023-05-19T02:13:55;4.92;;;4.92;;
54328;SDS011;40710;51.120;13.136;2023-05-19T02:16:24;5.15;;;5.15;;
54328;SDS011;40710;51.120;13.136;2023-05-19T02:18:52;5.02;;;5.02;;
54328;SDS011;40710;51.120;13.136;2023-05-19T02:21:17;4.64;;;4.64;;
54328;SDS011;40710;51.120;13.136;2023-05-19T02:23:41;5.84;;;5.84;;
54328;SDS011;40710;51.120;13.136;2023-05-19T02:26:06;7.15;;;7.15;;
54328;SDS011;40710;51.120;13.136;2023-05-19T02:28:31;7.15;;;7.15;;
54328;SDS011;40710;51.120;13.136;2023-05-19T02:30:56;6.86;;;6.86;;
54328;SDS011;40710;51.120;13.136;2023-05-19T02:33:20;5.85;;;5.85;;
54328;SDS011;40710;51.120;13.136;2023-05-19T02:35:47;5.91;;;5.91;;
54328;SDS011;40710;51.120;13.136;2023-05-19T02:38:12;5.77;;;5.77;;
54328;SDS011;40710;51.120;13.136;2023-05-19T02:40:36;5.45;;;5.45;;
54328;SDS011;40710;51.120;13.136;2023-05-19T02:43:01;5.35;;;5.35;;
54328;SDS011;40710;51.120;13.136;2023-05-19T02:45:26;5.37;;;5.37;;
54328;SDS011;40710;51.120;13.136;2023-05-19T02:47:51;5.21;;;5.20;;
54328;SDS011;40710;51.120;13.136;2023-05-19T02:50:16;5.39;;;5.36;;
54328;SDS011;40710;51.120;13.136;2023-05-19T02:52:40;5.24;;;5.22;;
54328;SDS011;40710;51.120;13.136;2023-05-19T02:55:05;5.41;;;5.41;;
54328;SDS011;40710;51.120;13.136;2023-05-19T02:57:30;5.14;;;5.13;;
54328;SDS011;40710;51.120;13.136;2023-05-19T02:59:56;5.44;;;5.44;;
54328;SDS011;40710;51.120;13.136;2023-05-19T03:02:20;5.27;;;5.27;;
54328;SDS011;40710;51.120;13.136;2023-05-19T03:04:45;5.33;;;5.33;;
54328;SDS011;40710;51.120;13.136;2023-05-19T03:07:09;5.57;;;5.57;;
54328;SDS011;40710;51.120;13.136;2023-05-19T03:09:36;5.28;;;5.28;;
54328;SDS011;40710;51.120;13.136;2023-05-19T03:12:01;5.24;;;5.24;;
54328;SDS011;40710;51.120;13.136;2023-05-19T03:14:27;5.63;;;5.63;;
54328;SDS011;40710;51.120;13.136;2023-05-19T03:16:51;5.37;;;5.37;;
54328;SDS011;40710;51.120;13.136;2023-05-19T03:19:16;5.35;;;5.35;;
54328;SDS011;40710;51.120;13.136;2023-05-19T03:21:41;5.47;;;5.47;;
54328;SDS011;40710;51.120;13.136;2023-05-19T03:24:05;5.29;;;5.29;;
54328;SDS011;40710;51.120;13.136;2023-05-19T03:26:30;5.52;;;5.52;;
54328;SDS011;40710;51.120;13.136;2023-05-19T03:28:54;5.26;;;5.26;;
54328;SDS011;40710;51.120;13.136;2023-05-19T03:31:19;5.46;;;5.46;;
54328;SDS011;40710;51.120;13.136;2023-05-19T03:33:43;5.08;;;5.08;;
54328;SDS011;40710;51.120;13.136;2023-05-19T03:36:08;5.38;;;5.38;;
54328;SDS011;40710;51.120;13.136;2023-05-19T03:38:33;5.56;;;5.56;;
54328;SDS011;40710;51.120;13.136;2023-05-19T03:40:57;5.78;;;5.78;;
54328;SDS011;40710;51.120;13.136;2023-05-19T03:43:22;6.11;;;6.11;;
54328;SDS011;40710;51.120;13.136;2023-05-19T03:45:46;5.92;;;5.92;;
54328;SDS011;40710;51.120;13.136;2023-05-19T03:48:11;5.57;;;5.57;;
54328;SDS011;40710;51.120;13.136;2023-05-19T03:50:35;5.69;;;5.69;;
54328;SDS011;40710;51.120;13.136;2023-05-19T03:53:01;5.55;;;5.55;;
54328;SDS011;40710;51.120;13.136;2023-05-19T03:55:25;5.49;;;5.49;;
54328;SDS011;40710;51.120;13.136;2023-05-19T03:57:52;5.72;;;5.72;;
54328;SDS011;40710;51.120;13.136;2023-05-19T04:00:17;5.79;;;5.79;;
54328;SDS011;40710;51.120;13.136;2023-05-19T04:02:42;5.83;;;5.83;;
54328;SDS011;40710;51.120;13.136;2023-05-19T04:05:06;5.62;;;5.62;;
54328;SDS011;40710;51.120;13.136;2023-05-19T04:07:31;5.58;;;5.58;;
54328;SDS011;40710;51.120;13.136;2023-05-19T04:09:56;5.76;;;5.76;;
54328;SDS011;40710;51.120;13.136;2023-05-19T04:12:21;6.16;;;6.16;;
54328;SDS011;40710;51.120;13.136;2023-05-19T04:14:45;6.32;;;6.32;;
54328;SDS011;40710;51.120;13.136;2023-05-19T04:17:10;6.29;;;6.29;;
54328;SDS011;40710;51.120;13.136;2023-05-19T04:19:35;6.55;;;6.55;;
54328;SDS011;40710;51.120;13.136;2023-05-19T04:21:59;6.71;;;6.71;;
54328;SDS011;40710;51.120;13.136;2023-05-19T04:24:24;7.96;;;7.96;;
54328;SDS011;40710;51.120;13.136;2023-05-19T04:26:48;9.20;;;9.20;;
54328;SDS011;40710;51.120;13.136;2023-05-19T04:29:13;9.82;;;9.82;;
54328;SDS011;40710;51.120;13.136;2023-05-19T04:31:40;10.49;;;10.48;;
54328;SDS011;40710;51.120;13.136;2023-05-19T04:34:05;10.99;;;10.96;;
54328;SDS011;40710;51.120;13.136;2023-05-19T04:36:31;8.50;;;8.48;;
54328;SDS011;40710;51.120;13.136;2023-05-19T04:38:57;7.18;;;7.18;;
54328;SDS011;40710;51.120;13.136;2023-05-19T04:41:25;7.23;;;7.23;;
54328;SDS011;40710;51.120;13.136;2023-05-19T04:43:50;7.00;;;7.00;;
54328;SDS011;40710;51.120;13.136;2023-05-19T04:46:14;7.39;;;7.39;;
54328;SDS011;40710;51.120;13.136;2023-05-19T04:48:39;7.46;;;7.46;;
54328;SDS011;40710;51.120;13.136;2023-05-19T04:51:04;7.20;;;7.20;;
54328;SDS011;40710;51.120;13.136;2023-05-19T04:53:30;7.18;;;7.18;;
54328;SDS011;40710;51.120;13.136;2023-05-19T04:55:55;7.42;;;7.42;;
54328;SDS011;40710;51.120;13.136;2023-05-19T04:58:19;7.59;;;7.59;;
54328;SDS011;40710;51.120;13.136;2023-05-19T05:00:44;6.73;;;6.73;;
54328;SDS011;40710;51.120;13.136;2023-05-19T05:03:09;6.57;;;6.57;;
54328;SDS011;40710;51.120;13.136;2023-05-19T05:05:33;6.55;;;6.55;;
54328;SDS011;40710;51.120;13.136;2023-05-19T05:07:58;6.13;;;6.13;;
54328;SDS011;40710;51.120;13.136;2023-05-19T05:10:23;6.67;;;6.67;;
54328;SDS011;40710;51.120;13.136;2023-05-19T05:12:47;6.42;;;6.42;;
54328;SDS011;40710;51.120;13.136;2023-05-19T05:15:13;6.57;;;6.57;;
54328;SDS011;40710;51.120;13.136;2023-05-19T05:17:37;6.66;;;6.66;;
54328;SDS011;40710;51.120;13.136;2023-05-19T05:20:02;6.93;;;6.93;;
54328;SDS011;40710;51.120;13.136;2023-05-19T05:22:29;6.63;;;6.63;;
54328;SDS011;40710;51.120;13.136;2023-05-19T05:24:53;6.57;;;6.57;;
54328;SDS011;40710;51.120;13.136;2023-05-19T05:27:18;6.61;;;6.60;;
54328;SDS011;40710;51.120;13.136;2023-05-19T05:29:43;6.83;;;6.83;;
54328;SDS011;40710;51.120;13.136;2023-05-19T05:32:07;6.90;;;6.90;;
54328;SDS011;40710;51.120;13.136;2023-05-19T05:34:32;6.43;;;6.43;;
54328;SDS011;40710;51.120;13.136;2023-05-19T05:36:56;6.46;;;6.46;;
54328;SDS011;40710;51.120;13.136;2023-05-19T05:39:21;6.49;;;6.49;;
54328;SDS011;40710;51.120;13.136;2023-05-19T05:41:46;6.37;;;6.37;;
54328;SDS011;40710;51.120;13.136;2023-05-19T05:44:10;6.61;;;6.61;;
54328;SDS011;40710;51.120;13.136;2023-05-19T05:46:35;6.83;;;6.83;;
54328;SDS011;40710;51.120;13.136;2023-05-19T05:48:59;6.73;;;6.73;;
54328;SDS011;40710;51.120;13.136;2023-05-19T05:51:24;6.99;;;6.99;;
54328;SDS011;40710;51.120;13.136;2023-05-19T05:53:53;20.81;;;20.57;;
54328;SDS011;40710;51.120;13.136;2023-05-19T05:56:18;35.73;;;35.05;;
54328;SDS011;40710;51.120;13.136;2023-05-19T05:58:43;14.31;;;14.30;;
54328;SDS011;40710;51.120;13.136;2023-05-19T06:01:08;8.55;;;8.54;;
54328;SDS011;40710;51.120;13.136;2023-05-19T06:03:33;7.30;;;7.30;;
54328;SDS011;40710;51.120;13.136;2023-05-19T06:06:01;7.39;;;7.39;;
54328;SDS011;40710;51.120;13.136;2023-05-19T06:08:25;7.36;;;7.36;;
54328;SDS011;40710;51.120;13.136;2023-05-19T06:10:50;7.11;;;7.11;;
54328;SDS011;40710;51.120;13.136;2023-05-19T06:13:14;9.68;;;9.68;;
54328;SDS011;40710;51.120;13.136;2023-05-19T06:15:41;18.39;;;18.17;;
54328;SDS011;40710;51.120;13.136;2023-05-19T06:18:06;21.84;;;21.49;;
54328;SDS011;40710;51.120;13.136;2023-05-19T06:20:30;9.16;;;9.10;;
54328;SDS011;40710;51.120;13.136;2023-05-19T06:22:55;7.49;;;7.49;;
54328;SDS011;40710;51.120;13.136;2023-05-19T06:25:19;7.82;;;7.82;;
54328;SDS011;40710;51.120;13.136;2023-05-19T06:27:44;7.54;;;7.54;;
54328;SDS011;40710;51.120;13.136;2023-05-19T06:30:09;7.91;;;7.88;;
54328;SDS011;40710;51.120;13.136;2023-05-19T06:32:34;8.13;;;8.12;;
54328;SDS011;40710;51.120;13.136;2023-05-19T06:34:59;7.86;;;7.86;;
54328;SDS011;40710;51.120;13.136;2023-05-19T06:37:23;8.10;;;8.10;;
54328;SDS011;40710;51.120;13.136;2023-05-19T06:39:48;8.17;;;8.17;;
54328;SDS011;40710;51.120;13.136;2023-05-19T06:42:15;8.03;;;8.03;;
54328;SDS011;40710;51.120;13.136;2023-05-19T06:44:39;8.46;;;8.46;;
54328;SDS011;40710;51.120;13.136;2023-05-19T06:47:04;7.90;;;7.89;;
54328;SDS011;40710;51.120;13.136;2023-05-19T06:49:28;8.29;;;8.29;;
54328;SDS011;40710;51.120;13.136;2023-05-19T06:51:53;7.94;;;7.93;;
54328;SDS011;40710;51.120;13.136;2023-05-19T06:54:18;7.94;;;7.94;;
54328;SDS011;40710;51.120;13.136;2023-05-19T06:56:42;8.14;;;8.14;;
54328;SDS011;40710;51.120;13.136;2023-05-19T06:59:07;7.63;;;7.63;;
54328;SDS011;40710;51.120;13.136;2023-05-19T07:01:31;7.72;;;7.72;;
54328;SDS011;40710;51.120;13.136;2023-05-19T07:03:56;7.97;;;7.97;;
54328;SDS011;40710;51.120;13.136;2023-05-19T07:06:20;8.00;;;8.00;;
54328;SDS011;40710;51.120;13.136;2023-05-19T07:08:45;7.59;;;7.59;;
54328;SDS011;40710;51.120;13.136;2023-05-19T07:11:09;7.18;;;7.18;;
54328;SDS011;40710;51.120;13.136;2023-05-19T07:13:35;7.43;;;7.43;;
54328;SDS011;40710;51.120;13.136;2023-05-19T07:15:59;7.91;;;7.91;;
54328;SDS011;40710;51.120;13.136;2023-05-19T07:18:24;7.57;;;7.57;;
54328;SDS011;40710;51.120;13.136;2023-05-19T07:20:50;7.59;;;7.59;;
54328;SDS011;40710;51.120;13.136;2023-05-19T07:23:15;7.49;;;7.49;;
54328;SDS011;40710;51.120;13.136;2023-05-19T07:25:40;7.26;;;7.26;;
54328;SDS011;40710;51.120;13.136;2023-05-19T07:28:04;7.65;;;7.65;;
54328;SDS011;40710;51.120;13.136;2023-05-19T07:30:29;6.99;;;6.99;;
54328;SDS011;40710;51.120;13.136;2023-05-19T07:32:54;6.93;;;6.93;;
54328;SDS011;40710;51.120;13.136;2023-05-19T07:35:19;7.07;;;7.07;;
54328;SDS011;40710;51.120;13.136;2023-05-19T07:37:45;6.92;;;6.92;;
54328;SDS011;40710;51.120;13.136;2023-05-19T07:40:10;7.25;;;7.25;;
54328;SDS011;40710;51.120;13.136;2023-05-19T07:42:34;7.16;;;7.16;;
54328;SDS011;40710;51.120;13.136;2023-05-19T07:44:59;7.88;;;7.88;;
54328;SDS011;40710;51.120;13.136;2023-05-19T07:47:24;7.36;;;7.36;;
54328;SDS011;40710;51.120;13.136;2023-05-19T07:49:48;6.92;;;6.92;;
54328;SDS011;40710;51.120;13.136;2023-05-19T07:52:13;6.98;;;6.98;;
54328;SDS011;40710;51.120;13.136;2023-05-19T07:54:37;6.62;;;6.62;;
54328;SDS011;40710;51.120;13.136;2023-05-19T07:57:02;6.32;;;6.32;;
54328;SDS011;40710;51.120;13.136;2023-05-19T07:59:27;6.05;;;6.05;;
54328;SDS011;40710;51.120;13.136;2023-05-19T08:01:51;6.08;;;6.08;;
54328;SDS011;40710;51.120;13.136;2023-05-19T08:04:16;8.44;;;8.44;;
54328;SDS011;40710;51.120;13.136;2023-05-19T08:06:40;8.83;;;8.83;;
54328;SDS011;40710;51.120;13.136;2023-05-19T08:09:07;7.07;;;7.07;;
54328;SDS011;40710;51.120;13.136;2023-05-19T08:11:31;6.79;;;6.79;;
54328;SDS011;40710;51.120;13.136;2023-05-19T08:13:56;6.84;;;6.84;;
54328;SDS011;40710;51.120;13.136;2023-05-19T08:16:21;7.02;;;7.02;;
54328;SDS011;40710;51.120;13.136;2023-05-19T08:18:45;6.95;;;6.95;;
54328;SDS011;40710;51.120;13.136;2023-05-19T08:21:10;6.73;;;6.73;;
54328;SDS011;40710;51.120;13.136;2023-05-19T08:23:34;6.94;;;6.94;;
54328;SDS011;40710;51.120;13.136;2023-05-19T08:26:00;7.14;;;7.14;;
54328;SDS011;40710;51.120;13.136;2023-05-19T08:28:25;7.45;;;7.45;;
54328;SDS011;40710;51.120;13.136;2023-05-19T08:30:50;7.01;;;7.01;;
54328;SDS011;40710;51.120;13.136;2023-05-19T08:33:15;7.23;;;7.23;;
54328;SDS011;40710;51.120;13.136;2023-05-19T08:35:40;6.85;;;6.85;;
54328;SDS011;40710;51.120;13.136;2023-05-19T08:38:06;6.55;;;6.55;;
54328;SDS011;40710;51.120;13.136;2023-05-19T08:40:30;6.39;;;6.39;;
54328;SDS011;40710;51.120;13.136;2023-05-19T08:42:57;6.52;;;6.52;;
54328;SDS011;40710;51.120;13.136;2023-05-19T08:45:22;6.39;;;6.39;;
54328;SDS011;40710;51.120;13.136;2023-05-19T08:47:47;5.99;;;5.99;;
54328;SDS011;40710;51.120;13.136;2023-05-19T08:50:16;5.81;;;5.81;;
54328;SDS011;40710;51.120;13.136;2023-05-19T08:52:47;6.16;;;6.16;;
54328;SDS011;40710;51.120;13.136;2023-05-19T08:55:17;6.34;;;6.34;;
54328;SDS011;40710;51.120;13.136;2023-05-19T08:58:05;5.42;;;5.42;;
54328;SDS011;40710;51.120;13.136;2023-05-19T09:00:31;4.90;;;4.90;;
54328;SDS011;40710;51.120;13.136;2023-05-19T09:02:56;4.37;;;4.37;;
54328;SDS011;40710;51.120;13.136;2023-05-19T09:05:23;4.04;;;4.04;;
54328;SDS011;40710;51.120;13.136;2023-05-19T09:07:48;4.35;;;4.35;;
54328;SDS011;40710;51.120;13.136;2023-05-19T09:10:12;4.23;;;4.23;;
54328;SDS011;40710;51.120;13.136;2023-05-19T09:12:39;4.44;;;4.44;;
54328;SDS011;40710;51.120;13.136;2023-05-19T09:15:08;4.35;;;4.35;;
54328;SDS011;40710;51.120;13.136;2023-05-19T09:17:34;4.11;;;4.11;;
54328;SDS011;40710;51.120;13.136;2023-05-19T09:20:03;3.85;;;3.85;;
54328;SDS011;40710;51.120;13.136;2023-05-19T09:22:33;3.89;;;3.89;;
54328;SDS011;40710;51.120;13.136;2023-05-19T09:25:04;4.39;;;4.39;;
54328;SDS011;40710;51.120;13.136;2023-05-19T09:27:29;4.45;;;4.45;;
54328;SDS011;40710;51.120;13.136;2023-05-19T09:29:57;4.14;;;4.14;;
54328;SDS011;40710;51.120;13.136;2023-05-19T09:32:31;4.73;;;4.73;;
54328;SDS011;40710;51.120;13.136;2023-05-19T09:34:58;4.22;;;4.22;;
54328;SDS011;40710;51.120;13.136;2023-05-19T09:37:26;10.54;;;10.54;;
54328;SDS011;40710;51.120;13.136;2023-05-19T09:39:50;5.04;;;5.04;;
54328;SDS011;40710;51.120;13.136;2023-05-19T09:42:16;4.11;;;4.11;;
54328;SDS011;40710;51.120;13.136;2023-05-19T09:44:47;4.07;;;4.07;;
54328;SDS011;40710;51.120;13.136;2023-05-19T09:47:14;4.23;;;4.23;;
54328;SDS011;40710;51.120;13.136;2023-05-19T09:49:44;3.88;;;3.88;;
54328;SDS011;40710;51.120;13.136;2023-05-19T09:52:09;3.64;;;3.64;;
54328;SDS011;40710;51.120;13.136;2023-05-19T09:54:39;3.57;;;3.57;;
54328;SDS011;40710;51.120;13.136;2023-05-19T09:57:04;3.31;;;3.31;;
54328;SDS011;40710;51.120;13.136;2023-05-19T09:59:30;3.48;;;3.48;;
54328;SDS011;40710;51.120;13.136;2023-05-19T10:01:55;3.42;;;3.42;;
54328;SDS011;40710;51.120;13.136;2023-05-19T10:04:22;3.67;;;3.67;;
54328;SDS011;40710;51.120;13.136;2023-05-19T10:06:52;3.81;;;3.81;;
54328;SDS011;40710;51.120;13.136;2023-05-19T10:09:19;3.79;;;3.79;;
54328;SDS011;40710;51.120;13.136;2023-05-19T10:11:53;3.83;;;3.83;;
54328;SDS011;40710;51.120;13.136;2023-05-19T10:14:23;3.77;;;3.77;;
54328;SDS011;40710;51.120;13.136;2023-05-19T10:16:52;3.72;;;3.72;;
54328;SDS011;40710;51.120;13.136;2023-05-19T10:19:22;3.32;;;3.32;;
54328;SDS011;40710;51.120;13.136;2023-05-19T10:21:48;3.55;;;3.55;;
54328;SDS011;40710;51.120;13.136;2023-05-19T10:24:13;3.92;;;3.92;;
54328;SDS011;40710;51.120;13.136;2023-05-19T10:26:39;3.68;;;3.68;;
54328;SDS011;40710;51.120;13.136;2023-05-19T10:29:08;3.89;;;3.89;;
54328;SDS011;40710;51.120;13.136;2023-05-19T10:31:35;4.64;;;4.64;;
54328;SDS011;40710;51.120;13.136;2023-05-19T10:36:45;3.41;;;3.41;;
54328;SDS011;40710;51.120;13.136;2023-05-19T10:39:15;3.18;;;3.18;;
54328;SDS011;40710;51.120;13.136;2023-05-19T10:42:03;3.22;;;3.22;;
54328;SDS011;40710;51.120;13.136;2023-05-19T10:44:59;3.29;;;3.29;;
54328;SDS011;40710;51.120;13.136;2023-05-19T10:47:34;5.76;;;5.76;;
54328;SDS011;40710;51.120;13.136;2023-05-19T10:49:59;4.87;;;4.87;;
54328;SDS011;40710;51.120;13.136;2023-05-19T10:52:24;3.52;;;3.52;;
54328;SDS011;40710;51.120;13.136;2023-05-19T10:54:49;3.31;;;3.31;;
54328;SDS011;40710;51.120;13.136;2023-05-19T10:57:14;3.18;;;3.18;;
54328;SDS011;40710;51.120;13.136;2023-05-19T10:59:43;3.28;;;3.28;;
54328;SDS011;40710;51.120;13.136;2023-05-19T11:02:07;3.36;;;3.36;;
54328;SDS011;40710;51.120;13.136;2023-05-19T11:04:39;3.36;;;3.36;;
54328;SDS011;40710;51.120;13.136;2023-05-19T11:07:13;3.65;;;3.65;;
54328;SDS011;40710;51.120;13.136;2023-05-19T11:09:40;3.29;;;3.29;;
54328;SDS011;40710;51.120;13.136;2023-05-19T11:12:05;3.08;;;3.08;;
54328;SDS011;40710;51.120;13.136;2023-05-19T11:14:30;3.22;;;3.22;;
54328;SDS011;40710;51.120;13.136;2023-05-19T11:16:56;3.27;;;3.27;;
54328;SDS011;40710;51.120;13.136;2023-05-19T11:19:25;3.59;;;3.59;;
54328;SDS011;40710;51.120;13.136;2023-05-19T11:22:09;3.52;;;3.52;;
54328;SDS011;40710;51.120;13.136;2023-05-19T11:24:37;11.33;;;11.30;;
54328;SDS011;40710;51.120;13.136;2023-05-19T11:29:49;3.64;;;3.64;;
54328;SDS011;40710;51.120;13.136;2023-05-19T11:32:14;3.38;;;3.38;;
54328;SDS011;40710;51.120;13.136;2023-05-19T11:34:39;3.31;;;3.31;;
54328;SDS011;40710;51.120;13.136;2023-05-19T11:37:04;3.75;;;3.75;;
54328;SDS011;40710;51.120;13.136;2023-05-19T11:39:30;3.96;;;3.96;;
54328;SDS011;40710;51.120;13.136;2023-05-19T11:41:55;3.76;;;3.76;;
54328;SDS011;40710;51.120;13.136;2023-05-19T11:44:20;3.87;;;3.87;;
54328;SDS011;40710;51.120;13.136;2023-05-19T11:46:44;3.72;;;3.72;;
54328;SDS011;40710;51.120;13.136;2023-05-19T11:49:09;3.85;;;3.85;;
54328;SDS011;40710;51.120;13.136;2023-05-19T11:51:33;3.71;;;3.71;;
54328;SDS011;40710;51.120;13.136;2023-05-19T11:53:59;3.79;;;3.79;;
54328;SDS011;40710;51.120;13.136;2023-05-19T11:56:25;3.44;;;3.44;;
54328;SDS011;40710;51.120;13.136;2023-05-19T11:58:51;3.36;;;3.36;;
54328;SDS011;40710;51.120;13.136;2023-05-19T12:01:16;3.69;;;3.69;;
54328;SDS011;40710;51.120;13.136;2023-05-19T12:03:41;3.41;;;3.41;;
54328;SDS011;40710;51.120;13.136;2023-05-19T12:06:05;3.91;;;3.91;;
54328;SDS011;40710;51.120;13.136;2023-05-19T12:08:31;3.72;;;3.72;;
54328;SDS011;40710;51.120;13.136;2023-05-19T12:10:55;3.60;;;3.60;;
54328;SDS011;40710;51.120;13.136;2023-05-19T12:13:20;3.50;;;3.50;;
54328;SDS011;40710;51.120;13.136;2023-05-19T12:15:45;3.61;;;3.61;;
54328;SDS011;40710;51.120;13.136;2023-05-19T12:18:10;3.34;;;3.34;;
54328;SDS011;40710;51.120;13.136;2023-05-19T12:20:35;3.28;;;3.28;;
54328;SDS011;40710;51.120;13.136;2023-05-19T12:23:00;3.66;;;3.66;;
54328;SDS011;40710;51.120;13.136;2023-05-19T12:25:25;3.35;;;3.35;;
54328;SDS011;40710;51.120;13.136;2023-05-19T12:27:56;3.13;;;3.13;;
54328;SDS011;40710;51.120;13.136;2023-05-19T12:30:27;3.35;;;3.35;;
54328;SDS011;40710;51.120;13.136;2023-05-19T12:32:54;2.97;;;2.97;;
54328;SDS011;40710;51.120;13.136;2023-05-19T12:35:20;2.78;;;2.78;;
54328;SDS011;40710;51.120;13.136;2023-05-19T12:37:49;2.90;;;2.89;;
54328;SDS011;40710;51.120;13.136;2023-05-19T12:40:15;2.83;;;2.83;;
54328;SDS011;40710;51.120;13.136;2023-05-19T12:42:42;2.82;;;2.80;;
54328;SDS011;40710;51.120;13.136;2023-05-19T12:45:07;2.75;;;2.75;;
54328;SDS011;40710;51.120;13.136;2023-05-19T12:47:32;2.96;;;2.96;;
54328;SDS011;40710;51.120;13.136;2023-05-19T12:52:22;2.94;;;2.94;;
54328;SDS011;40710;51.120;13.136;2023-05-19T12:54:48;2.96;;;2.96;;
54328;SDS011;40710;51.120;13.136;2023-05-19T12:57:15;2.89;;;2.89;;
54328;SDS011;40710;51.120;13.136;2023-05-19T12:59:41;2.86;;;2.86;;
54328;SDS011;40710;51.120;13.136;2023-05-19T13:02:05;2.89;;;2.89;;
54328;SDS011;40710;51.120;13.136;2023-05-19T13:04:30;2.82;;;2.82;;
54328;SDS011;40710;51.120;13.136;2023-05-19T13:06:54;3.34;;;3.34;;
54328;SDS011;40710;51.120;13.136;2023-05-19T13:09:19;7.54;;;7.54;;
54328;SDS011;40710;51.120;13.136;2023-05-19T13:11:45;6.87;;;6.87;;
54328;SDS011;40710;51.120;13.136;2023-05-19T13:14:16;2.89;;;2.89;;
54328;SDS011;40710;51.120;13.136;2023-05-19T13:16:41;2.79;;;2.79;;
54328;SDS011;40710;51.120;13.136;2023-05-19T13:19:06;2.64;;;2.64;;
54328;SDS011;40710;51.120;13.136;2023-05-19T13:21:30;2.49;;;2.49;;
54328;SDS011;40710;51.120;13.136;2023-05-19T13:23:55;2.53;;;2.53;;
54328;SDS011;40710;51.120;13.136;2023-05-19T13:26:20;2.36;;;2.36;;
54328;SDS011;40710;51.120;13.136;2023-05-19T13:28:44;2.54;;;2.54;;
54328;SDS011;40710;51.120;13.136;2023-05-19T13:31:09;2.39;;;2.39;;
54328;SDS011;40710;51.120;13.136;2023-05-19T13:33:33;2.68;;;2.68;;
54328;SDS011;40710;51.120;13.136;2023-05-19T13:35:58;3.67;;;3.67;;
54328;SDS011;40710;51.120;13.136;2023-05-19T13:38:23;6.77;;;6.75;;
54328;SDS011;40710;51.120;13.136;2023-05-19T13:40:47;3.40;;;3.40;;
54328;SDS011;40710;51.120;13.136;2023-05-19T13:43:12;3.12;;;3.12;;
54328;SDS011;40710;51.120;13.136;2023-05-19T13:45:36;2.65;;;2.65;;
54328;SDS011;40710;51.120;13.136;2023-05-19T13:48:01;2.31;;;2.31;;
54328;SDS011;40710;51.120;13.136;2023-05-19T13:50:25;2.49;;;2.49;;
54328;SDS011;40710;51.120;13.136;2023-05-19T13:52:50;2.73;;;2.73;;
54328;SDS011;40710;51.120;13.136;2023-05-19T13:55:15;2.65;;;2.65;;
54328;SDS011;40710;51.120;13.136;2023-05-19T13:57:39;2.71;;;2.71;;
54328;SDS011;40710;51.120;13.136;2023-05-19T14:00:04;2.88;;;2.88;;
54328;SDS011;40710;51.120;13.136;2023-05-19T14:02:29;2.62;;;2.62;;
54328;SDS011;40710;51.120;13.136;2023-05-19T14:04:55;2.66;;;2.66;;
54328;SDS011;40710;51.120;13.136;2023-05-19T14:07:19;2.73;;;2.73;;
54328;SDS011;40710;51.120;13.136;2023-05-19T14:09:44;2.79;;;2.79;;
54328;SDS011;40710;51.120;13.136;2023-05-19T14:12:09;3.03;;;3.03;;
54328;SDS011;40710;51.120;13.136;2023-05-19T14:14:35;3.02;;;3.02;;
54328;SDS011;40710;51.120;13.136;2023-05-19T14:16:59;3.11;;;3.11;;
54328;SDS011;40710;51.120;13.136;2023-05-19T14:19:24;3.19;;;3.19;;
54328;SDS011;40710;51.120;13.136;2023-05-19T14:21:53;3.92;;;3.92;;
54328;SDS011;40710;51.120;13.136;2023-05-19T14:24:17;4.51;;;4.49;;
54328;SDS011;40710;51.120;13.136;2023-05-19T14:26:43;3.88;;;3.87;;
54328;SDS011;40710;51.120;13.136;2023-05-19T14:29:07;3.90;;;3.90;;
54328;SDS011;40710;51.120;13.136;2023-05-19T14:31:32;3.60;;;3.60;;
54328;SDS011;40710;51.120;13.136;2023-05-19T14:33:56;3.55;;;3.55;;
54328;SDS011;40710;51.120;13.136;2023-05-19T14:36:21;3.44;;;3.44;;
54328;SDS011;40710;51.120;13.136;2023-05-19T14:38:45;3.55;;;3.55;;
54328;SDS011;40710;51.120;13.136;2023-05-19T14:41:10;3.61;;;3.61;;